sensor_id;sensor_type;location;lat;lon;timestamp;pressure;altitude;pressure_sealevel;temperature;humidity
68525;BME280;55524;51.380;13.372;2023-03-31T00:00:58;99703.16;;;9.73;100.00
68525;BME280;55524;51.380;13.372;2023-03-31T00:03:26;99701.16;;;9.78;100.00
68525;BME280;55524;51.380;13.372;2023-03-31T00:05:56;99701.69;;;9.86;99.59
68525;BME280;55524;51.380;13.372;2023-03-31T00:08:24;99707.00;;;9.84;99.95
68525;BME280;55524;51.380;13.372;2023-03-31T00:10:50;99706.66;;;9.92;99.32
68525;BME280;55524;51.380;13.372;2023-03-31T00:13:17;99703.75;;;9.98;99.16
68525;BME280;55524;51.380;13.372;2023-03-31T00:15:43;99701.94;;;9.99;98.44
68525;BME280;55524;51.380;13.372;2023-03-31T00:18:11;99702.81;;;9.99;98.08
68525;BME280;55524;51.380;13.372;2023-03-31T00:20:37;99695.75;;;10.00;98.54
68525;BME280;55524;51.380;13.372;2023-03-31T00:23:04;99691.19;;;10.03;98.52
68525;BME280;55524;51.380;13.372;2023-03-31T00:25:38;99686.75;;;10.04;97.92
68525;BME280;55524;51.380;13.372;2023-03-31T00:28:05;99679.75;;;10.03;97.64
68525;BME280;55524;51.380;13.372;2023-03-31T00:30:31;99677.88;;;10.05;97.37
68525;BME280;55524;51.380;13.372;2023-03-31T00:32:57;99669.59;;;10.13;97.27
68525;BME280;55524;51.380;13.372;2023-03-31T00:35:24;99668.00;;;10.10;97.18
68525;BME280;55524;51.380;13.372;2023-03-31T00:37:50;99672.09;;;10.16;96.46
68525;BME280;55524;51.380;13.372;2023-03-31T00:40:19;99667.81;;;10.13;97.06
68525;BME280;55524;51.380;13.372;2023-03-31T00:42:45;99659.97;;;10.12;97.10
68525;BME280;55524;51.380;13.372;2023-03-31T00:47:52;99651.97;;;10.13;96.44
68525;BME280;55524;51.380;13.372;2023-03-31T00:50:29;99661.63;;;10.14;96.51
68525;BME280;55524;51.380;13.372;2023-03-31T00:53:09;99651.69;;;10.19;96.04
68525;BME280;55524;51.380;13.372;2023-03-31T00:55:42;99659.19;;;10.09;96.86
68525;BME280;55524;51.380;13.372;2023-03-31T00:58:11;99647.78;;;10.09;97.30
68525;BME280;55524;51.380;13.372;2023-03-31T01:00:40;99639.56;;;10.15;96.66
68525;BME280;55524;51.380;13.372;2023-03-31T01:03:08;99637.94;;;10.13;96.87
68525;BME280;55524;51.380;13.372;2023-03-31T01:06:10;99631.88;;;10.10;97.38
68525;BME280;55524;51.380;13.372;2023-03-31T01:08:38;99632.72;;;10.11;97.45
68525;BME280;55524;51.380;13.372;2023-03-31T01:11:06;99625.09;;;10.05;97.11
68525;BME280;55524;51.380;13.372;2023-03-31T01:13:36;99614.41;;;10.08;97.32
68525;BME280;55524;51.380;13.372;2023-03-31T01:16:03;99623.63;;;9.99;98.01
68525;BME280;55524;51.380;13.372;2023-03-31T01:18:30;99615.69;;;9.99;97.68
68525;BME280;55524;51.380;13.372;2023-03-31T01:24:52;99608.41;;;10.04;97.74
68525;BME280;55524;51.380;13.372;2023-03-31T01:47:20;99599.06;;;9.97;97.22
68525;BME280;55524;51.380;13.372;2023-03-31T01:58:02;99573.09;;;9.71;98.94
68525;BME280;55524;51.380;13.372;2023-03-31T02:00:35;99576.50;;;9.73;98.72
68525;BME280;55524;51.380;13.372;2023-03-31T02:03:10;99561.28;;;9.60;99.37
68525;BME280;55524;51.380;13.372;2023-03-31T02:05:46;99556.34;;;9.53;100.00
68525;BME280;55524;51.380;13.372;2023-03-31T02:08:32;99552.59;;;9.40;100.00
68525;BME280;55524;51.380;13.372;2023-03-31T02:10:59;99547.72;;;9.30;100.00
68525;BME280;55524;51.380;13.372;2023-03-31T02:13:27;99538.66;;;9.19;100.00
68525;BME280;55524;51.380;13.372;2023-03-31T02:15:58;99544.78;;;9.19;100.00
68525;BME280;55524;51.380;13.372;2023-03-31T02:18:30;99539.84;;;9.11;100.00
68525;BME280;55524;51.380;13.372;2023-03-31T02:20:59;99527.78;;;9.06;100.00
68525;BME280;55524;51.380;13.372;2023-03-31T02:23:28;99533.72;;;9.11;100.00
68525;BME280;55524;51.380;13.372;2023-03-31T02:26:22;99527.66;;;9.09;100.00
68525;BME280;55524;51.380;13.372;2023-03-31T02:28:50;99520.69;;;9.08;100.00
68525;BME280;55524;51.380;13.372;2023-03-31T02:34:14;99517.19;;;9.07;100.00
68525;BME280;55524;51.380;13.372;2023-03-31T02:36:41;99504.00;;;9.07;100.00
68525;BME280;55524;51.380;13.372;2023-03-31T02:39:14;99505.50;;;9.13;100.00
68525;BME280;55524;51.380;13.372;2023-03-31T02:41:42;99491.47;;;9.13;100.00
68525;BME280;55524;51.380;13.372;2023-03-31T02:44:10;99500.09;;;9.16;100.00
68525;BME280;55524;51.380;13.372;2023-03-31T02:46:37;99501.94;;;9.14;100.00
68525;BME280;55524;51.380;13.372;2023-03-31T02:49:06;99505.63;;;9.10;100.00
68525;BME280;55524;51.380;13.372;2023-03-31T03:06:04;99497.59;;;9.13;100.00
68525;BME280;55524;51.380;13.372;2023-03-31T03:11:38;99487.19;;;9.10;100.00
68525;BME280;55524;51.380;13.372;2023-03-31T03:16:58;99471.31;;;9.11;100.00
68525;BME280;55524;51.380;13.372;2023-03-31T03:19:26;99470.25;;;9.16;100.00
68525;BME280;55524;51.380;13.372;2023-03-31T03:21:52;99480.13;;;9.10;100.00
68525;BME280;55524;51.380;13.372;2023-03-31T03:24:18;99473.81;;;9.15;100.00
68525;BME280;55524;51.380;13.372;2023-03-31T03:26:47;99466.94;;;9.10;100.00
68525;BME280;55524;51.380;13.372;2023-03-31T03:29:14;99460.69;;;9.13;100.00
68525;BME280;55524;51.380;13.372;2023-03-31T03:31:41;99461.13;;;9.23;100.00
68525;BME280;55524;51.380;13.372;2023-03-31T03:34:08;99456.47;;;9.28;100.00
68525;BME280;55524;51.380;13.372;2023-03-31T03:36:35;99455.47;;;9.30;100.00
68525;BME280;55524;51.380;13.372;2023-03-31T03:39:06;99456.25;;;9.32;100.00
68525;BME280;55524;51.380;13.372;2023-03-31T03:41:33;99454.47;;;9.33;100.00
68525;BME280;55524;51.380;13.372;2023-03-31T03:44:00;99450.91;;;9.34;100.00
68525;BME280;55524;51.380;13.372;2023-03-31T03:46:27;99449.06;;;9.36;100.00
68525;BME280;55524;51.380;13.372;2023-03-31T03:48:53;99440.34;;;9.34;100.00
68525;BME280;55524;51.380;13.372;2023-03-31T03:51:21;99442.69;;;9.40;100.00
68525;BME280;55524;51.380;13.372;2023-03-31T03:53:47;99439.97;;;9.42;100.00
68525;BME280;55524;51.380;13.372;2023-03-31T03:56:13;99436.50;;;9.41;100.00
68525;BME280;55524;51.380;13.372;2023-03-31T03:58:40;99441.47;;;9.47;100.00
68525;BME280;55524;51.380;13.372;2023-03-31T04:01:06;99439.84;;;9.45;100.00
68525;BME280;55524;51.380;13.372;2023-03-31T04:03:32;99430.22;;;9.44;100.00
68525;BME280;55524;51.380;13.372;2023-03-31T04:05:59;99432.06;;;9.42;100.00
68525;BME280;55524;51.380;13.372;2023-03-31T04:08:25;99428.34;;;9.46;100.00
68525;BME280;55524;51.380;13.372;2023-03-31T04:10:52;99430.22;;;9.44;100.00
68525;BME280;55524;51.380;13.372;2023-03-31T04:13:19;99426.88;;;9.40;100.00
68525;BME280;55524;51.380;13.372;2023-03-31T04:15:46;99416.19;;;9.43;100.00
68525;BME280;55524;51.380;13.372;2023-03-31T04:18:13;99409.59;;;9.52;100.00
68525;BME280;55524;51.380;13.372;2023-03-31T04:20:52;99411.91;;;9.58;100.00
68525;BME280;55524;51.380;13.372;2023-03-31T04:23:34;99412.69;;;9.60;100.00
68525;BME280;55524;51.380;13.372;2023-03-31T04:26:03;99417.13;;;9.59;100.00
68525;BME280;55524;51.380;13.372;2023-03-31T04:28:34;99408.13;;;9.64;100.00
68525;BME280;55524;51.380;13.372;2023-03-31T04:31:02;99404.41;;;9.68;99.58
68525;BME280;55524;51.380;13.372;2023-03-31T04:33:31;99398.97;;;9.71;99.46
68525;BME280;55524;51.380;13.372;2023-03-31T04:36:07;99394.63;;;9.70;99.52
68525;BME280;55524;51.380;13.372;2023-03-31T04:38:47;99392.69;;;9.73;99.96
68525;BME280;55524;51.380;13.372;2023-03-31T04:41:17;99391.06;;;9.71;99.21
68525;BME280;55524;51.380;13.372;2023-03-31T04:43:44;99387.41;;;9.73;99.17
68525;BME280;55524;51.380;13.372;2023-03-31T04:46:10;99383.06;;;9.72;99.30
68525;BME280;55524;51.380;13.372;2023-03-31T04:48:37;99378.63;;;9.73;99.25
68525;BME280;55524;51.380;13.372;2023-03-31T04:51:04;99373.31;;;9.74;99.58
68525;BME280;55524;51.380;13.372;2023-03-31T04:53:30;99369.56;;;9.78;99.17
68525;BME280;55524;51.380;13.372;2023-03-31T04:55:57;99365.13;;;9.79;99.17
68525;BME280;55524;51.380;13.372;2023-03-31T04:58:23;99356.03;;;9.84;98.77
68525;BME280;55524;51.380;13.372;2023-03-31T05:00:50;99357.13;;;9.80;98.73
68525;BME280;55524;51.380;13.372;2023-03-31T05:03:16;99349.31;;;9.79;99.16
68525;BME280;55524;51.380;13.372;2023-03-31T05:05:43;99351.41;;;9.72;99.79
68525;BME280;55524;51.380;13.372;2023-03-31T05:08:09;99342.88;;;9.67;99.65
68525;BME280;55524;51.380;13.372;2023-03-31T05:10:35;99341.00;;;9.69;99.77
68525;BME280;55524;51.380;13.372;2023-03-31T05:13:02;99333.19;;;9.68;99.52
68525;BME280;55524;51.380;13.372;2023-03-31T05:15:28;99326.72;;;9.73;99.42
68525;BME280;55524;51.380;13.372;2023-03-31T05:17:56;99332.94;;;9.72;99.83
68525;BME280;55524;51.380;13.372;2023-03-31T05:20:22;99326.47;;;9.78;98.79
68525;BME280;55524;51.380;13.372;2023-03-31T05:22:49;99320.75;;;9.87;98.70
68525;BME280;55524;51.380;13.372;2023-03-31T05:25:16;99315.53;;;9.85;99.31
68525;BME280;55524;51.380;13.372;2023-03-31T05:27:46;99316.63;;;9.81;99.46
68525;BME280;55524;51.380;13.372;2023-03-31T05:30:17;99310.69;;;9.94;99.18
68525;BME280;55524;51.380;13.372;2023-03-31T05:32:43;99304.81;;;9.89;99.39
68525;BME280;55524;51.380;13.372;2023-03-31T05:35:10;99287.56;;;9.99;98.44
68525;BME280;55524;51.380;13.372;2023-03-31T05:37:36;99288.41;;;9.99;98.05
68525;BME280;55524;51.380;13.372;2023-03-31T05:40:03;99286.88;;;9.95;98.75
68525;BME280;55524;51.380;13.372;2023-03-31T05:42:30;99284.06;;;9.98;98.38
68525;BME280;55524;51.380;13.372;2023-03-31T05:44:56;99274.13;;;10.03;98.24
68525;BME280;55524;51.380;13.372;2023-03-31T05:47:22;99271.13;;;10.09;98.59
68525;BME280;55524;51.380;13.372;2023-03-31T05:49:49;99269.16;;;10.13;97.96
68525;BME280;55524;51.380;13.372;2023-03-31T05:52:16;99260.84;;;10.21;97.41
68525;BME280;55524;51.380;13.372;2023-03-31T05:54:42;99255.41;;;10.24;96.92
68525;BME280;55524;51.380;13.372;2023-03-31T05:57:09;99244.84;;;10.24;96.82
68525;BME280;55524;51.380;13.372;2023-03-31T05:59:37;99248.19;;;10.27;96.93
68525;BME280;55524;51.380;13.372;2023-03-31T06:02:03;99241.28;;;10.41;96.34
68525;BME280;55524;51.380;13.372;2023-03-31T06:04:30;99244.19;;;10.36;96.85
68525;BME280;55524;51.380;13.372;2023-03-31T06:06:57;99239.41;;;10.43;95.63
68525;BME280;55524;51.380;13.372;2023-03-31T06:09:24;99235.94;;;10.42;94.90
68525;BME280;55524;51.380;13.372;2023-03-31T06:11:51;99233.97;;;10.46;95.50
68525;BME280;55524;51.380;13.372;2023-03-31T06:14:17;99238.03;;;10.51;96.05
68525;BME280;55524;51.380;13.372;2023-03-31T06:16:44;99238.88;;;10.52;96.91
68525;BME280;55524;51.380;13.372;2023-03-31T06:19:12;99233.06;;;10.61;96.18
68525;BME280;55524;51.380;13.372;2023-03-31T06:21:39;99234.09;;;10.74;95.23
68525;BME280;55524;51.380;13.372;2023-03-31T06:24:07;99227.59;;;10.80;95.45
68525;BME280;55524;51.380;13.372;2023-03-31T06:26:33;99228.69;;;10.76;96.61
68525;BME280;55524;51.380;13.372;2023-03-31T06:29:00;99230.22;;;10.80;96.00
68525;BME280;55524;51.380;13.372;2023-03-31T06:31:26;99236.69;;;10.90;95.54
68525;BME280;55524;51.380;13.372;2023-03-31T06:33:53;99228.59;;;10.93;95.68
68525;BME280;55524;51.380;13.372;2023-03-31T06:36:21;99211.34;;;11.02;95.36
68525;BME280;55524;51.380;13.372;2023-03-31T06:38:48;99213.53;;;11.10;94.77
68525;BME280;55524;51.380;13.372;2023-03-31T06:41:16;99215.31;;;11.09;94.61
68525;BME280;55524;51.380;13.372;2023-03-31T06:43:43;99208.81;;;11.15;94.30
68525;BME280;55524;51.380;13.372;2023-03-31T06:46:09;99206.94;;;11.17;94.15
68525;BME280;55524;51.380;13.372;2023-03-31T06:48:36;99208.53;;;11.19;94.56
68525;BME280;55524;51.380;13.372;2023-03-31T06:51:04;99205.81;;;11.21;93.61
68525;BME280;55524;51.380;13.372;2023-03-31T06:53:31;99206.56;;;11.23;93.17
68525;BME280;55524;51.380;13.372;2023-03-31T06:55:57;99212.97;;;11.19;94.02
68525;BME280;55524;51.380;13.372;2023-03-31T06:58:23;99211.94;;;11.21;93.76
68525;BME280;55524;51.380;13.372;2023-03-31T07:00:50;99210.72;;;11.27;92.67
68525;BME280;55524;51.380;13.372;2023-03-31T07:03:17;99216.00;;;11.27;93.82
68525;BME280;55524;51.380;13.372;2023-03-31T07:05:54;99213.28;;;11.28;93.33
68525;BME280;55524;51.380;13.372;2023-03-31T07:08:21;99206.75;;;11.34;93.79
68525;BME280;55524;51.380;13.372;2023-03-31T07:10:49;99211.66;;;11.40;95.29
68525;BME280;55524;51.380;13.372;2023-03-31T07:13:16;99215.25;;;11.39;95.44
68525;BME280;55524;51.380;13.372;2023-03-31T07:15:45;99205.34;;;11.43;93.87
68525;BME280;55524;51.380;13.372;2023-03-31T07:18:12;99207.59;;;11.35;94.55
68525;BME280;55524;51.380;13.372;2023-03-31T07:20:41;99205.06;;;11.33;94.67
68525;BME280;55524;51.380;13.372;2023-03-31T07:23:07;99194.38;;;11.35;94.84
68525;BME280;55524;51.380;13.372;2023-03-31T07:25:34;99197.81;;;11.37;94.30
68525;BME280;55524;51.380;13.372;2023-03-31T07:28:02;99190.91;;;11.48;94.83
68525;BME280;55524;51.380;13.372;2023-03-31T07:30:28;99186.38;;;11.65;92.68
68525;BME280;55524;51.380;13.372;2023-03-31T07:32:54;99172.75;;;11.71;91.78
68525;BME280;55524;51.380;13.372;2023-03-31T07:35:21;99165.19;;;11.93;90.76
68525;BME280;55524;51.380;13.372;2023-03-31T07:37:50;99160.41;;;12.13;89.90
68525;BME280;55524;51.380;13.372;2023-03-31T07:40:20;99147.41;;;12.49;88.25
68525;BME280;55524;51.380;13.372;2023-03-31T07:42:47;99132.63;;;12.85;84.18
68525;BME280;55524;51.380;13.372;2023-03-31T07:45:15;99129.25;;;13.09;83.03
68525;BME280;55524;51.380;13.372;2023-03-31T07:47:42;99122.91;;;13.37;82.66
68525;BME280;55524;51.380;13.372;2023-03-31T07:50:09;99112.69;;;13.56;81.14
68525;BME280;55524;51.380;13.372;2023-03-31T07:52:36;99092.28;;;13.93;78.95
68525;BME280;55524;51.380;13.372;2023-03-31T07:55:03;99088.44;;;13.97;78.62
68525;BME280;55524;51.380;13.372;2023-03-31T07:57:29;99081.00;;;14.26;77.92
68525;BME280;55524;51.380;13.372;2023-03-31T07:59:56;99081.22;;;13.99;76.21
68525;BME280;55524;51.380;13.372;2023-03-31T08:02:22;99075.84;;;13.88;76.69
68525;BME280;55524;51.380;13.372;2023-03-31T08:04:49;99089.59;;;13.69;78.69
68525;BME280;55524;51.380;13.372;2023-03-31T08:07:16;99078.69;;;13.74;77.91
68525;BME280;55524;51.380;13.372;2023-03-31T08:09:44;99081.00;;;13.66;78.12
68525;BME280;55524;51.380;13.372;2023-03-31T08:12:11;99081.13;;;13.64;77.56
68525;BME280;55524;51.380;13.372;2023-03-31T08:14:37;99081.84;;;13.79;77.58
68525;BME280;55524;51.380;13.372;2023-03-31T08:17:03;99080.91;;;13.67;77.20
68525;BME280;55524;51.380;13.372;2023-03-31T08:19:29;99084.50;;;13.79;77.28
68525;BME280;55524;51.380;13.372;2023-03-31T08:21:56;99083.66;;;13.78;77.97
68525;BME280;55524;51.380;13.372;2023-03-31T08:24:22;99087.38;;;13.76;78.41
68525;BME280;55524;51.380;13.372;2023-03-31T08:26:48;99073.25;;;13.75;78.16
68525;BME280;55524;51.380;13.372;2023-03-31T08:29:15;99075.56;;;13.80;77.35
68525;BME280;55524;51.380;13.372;2023-03-31T08:31:41;99069.97;;;13.72;78.00
68525;BME280;55524;51.380;13.372;2023-03-31T08:34:07;99072.13;;;13.67;77.65
68525;BME280;55524;51.380;13.372;2023-03-31T08:36:34;99075.28;;;13.72;77.81
68525;BME280;55524;51.380;13.372;2023-03-31T08:39:01;99095.72;;;13.59;79.30
68525;BME280;55524;51.380;13.372;2023-03-31T08:44:28;99084.56;;;13.53;79.44
68525;BME280;55524;51.380;13.372;2023-03-31T08:46:57;99085.22;;;13.44;79.46
68525;BME280;55524;51.380;13.372;2023-03-31T08:49:26;99085.88;;;13.35;80.53
68525;BME280;55524;51.380;13.372;2023-03-31T08:52:05;99081.41;;;13.36;80.70
68525;BME280;55524;51.380;13.372;2023-03-31T08:54:46;99075.34;;;13.34;80.73
68525;BME280;55524;51.380;13.372;2023-03-31T08:57:35;99067.84;;;13.27;80.45
68525;BME280;55524;51.380;13.372;2023-03-31T09:00:04;99067.59;;;13.43;80.90
68525;BME280;55524;51.380;13.372;2023-03-31T09:02:59;99044.78;;;13.41;79.02
68525;BME280;55524;51.380;13.372;2023-03-31T09:06:17;99040.06;;;13.57;78.34
68525;BME280;55524;51.380;13.372;2023-03-31T09:08:42;99028.88;;;13.65;76.97
68525;BME280;55524;51.380;13.372;2023-03-31T09:11:13;99035.22;;;13.75;78.08
68525;BME280;55524;51.380;13.372;2023-03-31T09:16:19;99017.19;;;13.67;76.43
68525;BME280;55524;51.380;13.372;2023-03-31T09:18:48;99013.50;;;13.57;77.02
68525;BME280;55524;51.380;13.372;2023-03-31T09:21:26;99021.19;;;13.49;77.12
68525;BME280;55524;51.380;13.372;2023-03-31T09:27:09;99023.69;;;13.14;78.83
68525;BME280;55524;51.380;13.372;2023-03-31T09:30:02;99024.00;;;13.09;78.86
68525;BME280;55524;51.380;13.372;2023-03-31T09:32:32;99025.84;;;12.96;79.80
68525;BME280;55524;51.380;13.372;2023-03-31T09:35:22;99011.19;;;12.90;79.75
68525;BME280;55524;51.380;13.372;2023-03-31T09:37:54;99004.41;;;12.99;80.34
68525;BME280;55524;51.380;13.372;2023-03-31T09:40:23;99008.63;;;13.01;81.13
68525;BME280;55524;51.380;13.372;2023-03-31T09:43:00;98996.22;;;13.15;81.18
68525;BME280;55524;51.380;13.372;2023-03-31T09:45:27;98999.72;;;13.15;80.40
68525;BME280;55524;51.380;13.372;2023-03-31T09:47:57;98992.47;;;13.17;80.63
68525;BME280;55524;51.380;13.372;2023-03-31T09:50:24;98990.78;;;13.16;80.07
68525;BME280;55524;51.380;13.372;2023-03-31T09:52:59;98999.81;;;13.14;81.60
68525;BME280;55524;51.380;13.372;2023-03-31T09:55:52;98990.41;;;12.97;80.00
68525;BME280;55524;51.380;13.372;2023-03-31T09:58:22;98984.38;;;12.69;79.21
68525;BME280;55524;51.380;13.372;2023-03-31T10:00:59;98988.63;;;12.72;80.11
68525;BME280;55524;51.380;13.372;2023-03-31T10:03:27;98982.25;;;12.62;81.07
68525;BME280;55524;51.380;13.372;2023-03-31T10:05:56;98981.31;;;12.50;80.91
68525;BME280;55524;51.380;13.372;2023-03-31T10:08:30;98987.44;;;12.50;80.53
68525;BME280;55524;51.380;13.372;2023-03-31T10:13:29;98988.28;;;12.38;81.93
68525;BME280;55524;51.380;13.372;2023-03-31T10:16:10;98982.47;;;12.33;81.96
68525;BME280;55524;51.380;13.372;2023-03-31T10:18:40;98989.06;;;12.40;82.72
68525;BME280;55524;51.380;13.372;2023-03-31T10:21:25;98984.06;;;12.48;84.01
68525;BME280;55524;51.380;13.372;2023-03-31T10:23:52;98976.00;;;12.63;82.79
68525;BME280;55524;51.380;13.372;2023-03-31T10:26:22;98967.00;;;12.65;82.87
68525;BME280;55524;51.380;13.372;2023-03-31T10:28:51;98959.56;;;12.83;81.63
68525;BME280;55524;51.380;13.372;2023-03-31T10:31:32;98963.25;;;12.93;81.92
68525;BME280;55524;51.380;13.372;2023-03-31T10:34:08;98952.84;;;12.90;82.01
68525;BME280;55524;51.380;13.372;2023-03-31T10:36:38;98958.28;;;12.89;82.44
68525;BME280;55524;51.380;13.372;2023-03-31T10:39:11;98948.09;;;12.95;82.29
68525;BME280;55524;51.380;13.372;2023-03-31T10:41:40;98943.97;;;12.91;82.18
68525;BME280;55524;51.380;13.372;2023-03-31T10:44:22;98930.59;;;12.93;82.68
68525;BME280;55524;51.380;13.372;2023-03-31T10:46:52;98938.06;;;12.75;83.14
68525;BME280;55524;51.380;13.372;2023-03-31T10:51:55;98939.78;;;12.63;86.14
68525;BME280;55524;51.380;13.372;2023-03-31T10:54:23;98929.56;;;12.70;84.84
68525;BME280;55524;51.380;13.372;2023-03-31T10:56:55;98933.06;;;12.58;86.32
68525;BME280;55524;51.380;13.372;2023-03-31T11:05:37;98925.25;;;12.43;89.89
68525;BME280;55524;51.380;13.372;2023-03-31T11:16:37;98905.22;;;11.88;92.16
68525;BME280;55524;51.380;13.372;2023-03-31T11:24:55;98892.63;;;11.65;97.09
68525;BME280;55524;51.380;13.372;2023-03-31T11:36:10;98881.94;;;11.66;99.91
68525;BME280;55524;51.380;13.372;2023-03-31T11:44:07;98873.19;;;11.39;100.00
68525;BME280;55524;51.380;13.372;2023-03-31T11:46:49;98866.28;;;11.36;100.00
68525;BME280;55524;51.380;13.372;2023-03-31T11:49:33;98869.91;;;11.35;100.00
68525;BME280;55524;51.380;13.372;2023-03-31T11:52:16;98863.88;;;11.33;100.00
68525;BME280;55524;51.380;13.372;2023-03-31T11:58:14;98863.31;;;11.28;100.00
68525;BME280;55524;51.380;13.372;2023-03-31T12:00:50;98854.38;;;11.16;100.00
68525;BME280;55524;51.380;13.372;2023-03-31T12:03:40;98855.66;;;11.11;100.00
68525;BME280;55524;51.380;13.372;2023-03-31T12:06:17;98860.59;;;11.02;100.00
68525;BME280;55524;51.380;13.372;2023-03-31T12:17:25;98842.34;;;10.85;100.00
68525;BME280;55524;51.380;13.372;2023-03-31T12:19:54;98837.25;;;10.82;100.00
68525;BME280;55524;51.380;13.372;2023-03-31T12:22:30;98833.09;;;10.78;100.00
68525;BME280;55524;51.380;13.372;2023-03-31T12:24:59;98826.50;;;10.71;100.00
68525;BME280;55524;51.380;13.372;2023-03-31T12:27:40;98822.38;;;10.67;100.00
68525;BME280;55524;51.380;13.372;2023-03-31T12:30:17;98818.78;;;10.68;100.00
68525;BME280;55524;51.380;13.372;2023-03-31T12:32:50;98815.28;;;10.67;100.00
68525;BME280;55524;51.380;13.372;2023-03-31T12:35:25;98817.94;;;10.67;100.00
68525;BME280;55524;51.380;13.372;2023-03-31T12:40:57;98811.44;;;10.58;100.00
68525;BME280;55524;51.380;13.372;2023-03-31T12:46:32;98802.50;;;10.47;100.00
68525;BME280;55524;51.380;13.372;2023-03-31T12:57:42;98790.47;;;10.28;100.00
68525;BME280;55524;51.380;13.372;2023-03-31T13:00:14;98788.28;;;10.35;100.00
68525;BME280;55524;51.380;13.372;2023-03-31T13:02:46;98770.75;;;10.34;100.00
68525;BME280;55524;51.380;13.372;2023-03-31T13:08:04;98759.13;;;10.37;100.00
68525;BME280;55524;51.380;13.372;2023-03-31T13:10:31;98753.78;;;10.38;100.00
68525;BME280;55524;51.380;13.372;2023-03-31T13:15:28;98743.59;;;10.32;100.00
68525;BME280;55524;51.380;13.372;2023-03-31T13:17:59;98741.78;;;10.32;100.00
68525;BME280;55524;51.380;13.372;2023-03-31T13:23:12;98733.97;;;10.31;100.00
68525;BME280;55524;51.380;13.372;2023-03-31T13:25:45;98733.03;;;10.32;100.00
68525;BME280;55524;51.380;13.372;2023-03-31T13:33:26;98737.91;;;10.24;100.00
68525;BME280;55524;51.380;13.372;2023-03-31T13:41:52;98729.94;;;10.25;100.00
68525;BME280;55524;51.380;13.372;2023-03-31T14:01:44;98732.09;;;10.04;100.00
68525;BME280;55524;51.380;13.372;2023-03-31T14:07:06;98719.94;;;10.30;100.00
68525;BME280;55524;51.380;13.372;2023-03-31T14:09:41;98716.31;;;10.46;100.00
68525;BME280;55524;51.380;13.372;2023-03-31T14:12:20;98719.34;;;10.67;100.00
68525;BME280;55524;51.380;13.372;2023-03-31T14:14:51;98713.25;;;10.79;100.00
68525;BME280;55524;51.380;13.372;2023-03-31T14:17:18;98716.88;;;11.03;100.00
68525;BME280;55524;51.380;13.372;2023-03-31T14:23:03;98709.09;;;11.27;100.00
68525;BME280;55524;51.380;13.372;2023-03-31T14:28:18;98716.28;;;11.64;100.00
68525;BME280;55524;51.380;13.372;2023-03-31T14:39:31;98684.53;;;12.26;100.00
68525;BME280;55524;51.380;13.372;2023-03-31T14:45:02;98672.06;;;13.90;96.97
68525;BME280;55524;51.380;13.372;2023-03-31T14:47:29;98671.91;;;14.14;95.91
68525;BME280;55524;51.380;13.372;2023-03-31T14:50:01;98657.38;;;14.29;88.86
68525;BME280;55524;51.380;13.372;2023-03-31T14:52:32;98664.91;;;14.88;92.46
68525;BME280;55524;51.380;13.372;2023-03-31T14:54:59;98658.19;;;15.05;90.98
68525;BME280;55524;51.380;13.372;2023-03-31T14:57:35;98628.00;;;14.95;84.61
68525;BME280;55524;51.380;13.372;2023-03-31T15:00:04;98630.13;;;15.22;84.03
68525;BME280;55524;51.380;13.372;2023-03-31T15:02:36;98636.06;;;15.35;83.27
68525;BME280;55524;51.380;13.372;2023-03-31T15:05:08;98630.53;;;14.96;83.78
68525;BME280;55524;51.380;13.372;2023-03-31T15:07:36;98639.31;;;14.55;84.60
68525;BME280;55524;51.380;13.372;2023-03-31T15:10:06;98638.72;;;14.40;84.57
68525;BME280;55524;51.380;13.372;2023-03-31T15:12:33;98654.88;;;14.05;87.88
68525;BME280;55524;51.380;13.372;2023-03-31T15:15:06;98657.81;;;13.57;88.45
68525;BME280;55524;51.380;13.372;2023-03-31T15:17:42;98661.31;;;13.58;89.88
68525;BME280;55524;51.380;13.372;2023-03-31T15:20:28;98655.53;;;13.41;92.18
68525;BME280;55524;51.380;13.372;2023-03-31T15:22:59;98665.66;;;13.25;94.30
68525;BME280;55524;51.380;13.372;2023-03-31T15:25:43;98651.28;;;12.81;90.15
68525;BME280;55524;51.380;13.372;2023-03-31T15:28:13;98668.53;;;12.51;94.84
68525;BME280;55524;51.380;13.372;2023-03-31T15:30:42;98660.06;;;12.22;97.29
68525;BME280;55524;51.380;13.372;2023-03-31T15:33:17;98649.53;;;12.10;95.60
68525;BME280;55524;51.380;13.372;2023-03-31T15:35:45;98652.72;;;12.02;98.38
68525;BME280;55524;51.380;13.372;2023-03-31T15:38:13;98650.63;;;11.81;99.60
68525;BME280;55524;51.380;13.372;2023-03-31T15:40:44;98656.84;;;11.56;100.00
68525;BME280;55524;51.380;13.372;2023-03-31T15:43:16;98672.59;;;11.58;100.00
68525;BME280;55524;51.380;13.372;2023-03-31T15:48:22;98670.06;;;11.44;100.00
68525;BME280;55524;51.380;13.372;2023-03-31T15:50:51;98660.56;;;11.28;100.00
68525;BME280;55524;51.380;13.372;2023-03-31T15:53:42;98664.34;;;11.24;100.00
68525;BME280;55524;51.380;13.372;2023-03-31T15:56:42;98660.25;;;11.33;100.00
68525;BME280;55524;51.380;13.372;2023-03-31T15:59:27;98655.69;;;11.22;100.00
68525;BME280;55524;51.380;13.372;2023-03-31T16:01:54;98660.22;;;11.20;100.00
68525;BME280;55524;51.380;13.372;2023-03-31T16:04:22;98661.19;;;11.19;100.00
68525;BME280;55524;51.380;13.372;2023-03-31T16:07:15;98668.78;;;11.11;100.00
68525;BME280;55524;51.380;13.372;2023-03-31T16:09:48;98666.31;;;10.70;100.00
68525;BME280;55524;51.380;13.372;2023-03-31T16:12:38;98665.19;;;10.47;100.00
68525;BME280;55524;51.380;13.372;2023-03-31T16:15:15;98654.13;;;10.27;100.00
68525;BME280;55524;51.380;13.372;2023-03-31T16:18:06;98657.06;;;10.08;100.00
68525;BME280;55524;51.380;13.372;2023-03-31T16:20:35;98655.94;;;10.13;100.00